sensor_id;sensor_type;location;lat;lon;timestamp;temperature;humidity
39067;DHT22;24821;51.988;6.020;2023-08-20T00:00:17;19.10;99.90
39067;DHT22;24821;51.988;6.020;2023-08-20T00:02:45;19.20;99.90
39067;DHT22;24821;51.988;6.020;2023-08-20T00:05:12;19.20;99.90
39067;DHT22;24821;51.988;6.020;2023-08-20T00:07:39;19.20;99.90
39067;DHT22;24821;51.988;6.020;2023-08-20T00:10:05;19.30;99.90
39067;DHT22;24821;51.988;6.020;2023-08-20T00:12:32;19.30;99.90
39067;DHT22;24821;51.988;6.020;2023-08-20T00:14:59;19.40;99.90
39067;DHT22;24821;51.988;6.020;2023-08-20T00:17:31;19.40;99.90
39067;DHT22;24821;51.988;6.020;2023-08-20T00:19:57;19.40;99.90
39067;DHT22;24821;51.988;6.020;2023-08-20T00:22:24;19.40;99.90
39067;DHT22;24821;51.988;6.020;2023-08-20T00:24:54;19.50;99.90
39067;DHT22;24821;51.988;6.020;2023-08-20T00:27:21;19.50;99.90
39067;DHT22;24821;51.988;6.020;2023-08-20T00:29:46;19.50;99.90
39067;DHT22;24821;51.988;6.020;2023-08-20T00:32:12;19.60;99.90
39067;DHT22;24821;51.988;6.020;2023-08-20T00:34:38;19.50;99.90
39067;DHT22;24821;51.988;6.020;2023-08-20T00:37:03;19.60;99.90
39067;DHT22;24821;51.988;6.020;2023-08-20T00:39:29;19.60;99.90
39067;DHT22;24821;51.988;6.020;2023-08-20T00:41:55;19.50;99.90
39067;DHT22;24821;51.988;6.020;2023-08-20T00:44:21;19.50;99.90
39067;DHT22;24821;51.988;6.020;2023-08-20T00:46:46;19.40;99.90
39067;DHT22;24821;51.988;6.020;2023-08-20T00:49:12;19.40;99.90
39067;DHT22;24821;51.988;6.020;2023-08-20T00:51:38;19.40;99.90
39067;DHT22;24821;51.988;6.020;2023-08-20T00:54:04;19.30;99.90
39067;DHT22;24821;51.988;6.020;2023-08-20T00:56:30;19.30;99.90
39067;DHT22;24821;51.988;6.020;2023-08-20T00:58:56;19.30;99.90
39067;DHT22;24821;51.988;6.020;2023-08-20T01:01:23;19.30;99.90
39067;DHT22;24821;51.988;6.020;2023-08-20T01:03:49;19.30;99.90
39067;DHT22;24821;51.988;6.020;2023-08-20T01:09:30;19.20;99.90
39067;DHT22;24821;51.988;6.020;2023-08-20T01:12:01;19.20;99.90
39067;DHT22;24821;51.988;6.020;2023-08-20T01:14:27;19.10;99.90
39067;DHT22;24821;51.988;6.020;2023-08-20T01:16:53;19.10;99.90
39067;DHT22;24821;51.988;6.020;2023-08-20T01:19:20;19.10;99.90
39067;DHT22;24821;51.988;6.020;2023-08-20T01:24:24;19.20;99.90
39067;DHT22;24821;51.988;6.020;2023-08-20T01:29:43;19.30;99.90
39067;DHT22;24821;51.988;6.020;2023-08-20T01:32:09;19.20;99.90
39067;DHT22;24821;51.988;6.020;2023-08-20T01:34:36;19.30;99.90
39067;DHT22;24821;51.988;6.020;2023-08-20T01:37:02;19.30;99.90
39067;DHT22;24821;51.988;6.020;2023-08-20T01:39:27;19.30;99.90
39067;DHT22;24821;51.988;6.020;2023-08-20T01:41:53;19.30;99.90
39067;DHT22;24821;51.988;6.020;2023-08-20T01:44:18;19.30;99.90
39067;DHT22;24821;51.988;6.020;2023-08-20T01:46:44;19.30;99.90
39067;DHT22;24821;51.988;6.020;2023-08-20T01:49:09;19.30;99.90
39067;DHT22;24821;51.988;6.020;2023-08-20T01:51:35;19.30;99.90
39067;DHT22;24821;51.988;6.020;2023-08-20T01:54:02;19.30;99.90
39067;DHT22;24821;51.988;6.020;2023-08-20T01:56:27;19.40;99.90
39067;DHT22;24821;51.988;6.020;2023-08-20T01:58:53;19.40;99.90
39067;DHT22;24821;51.988;6.020;2023-08-20T02:01:18;19.30;99.90
39067;DHT22;24821;51.988;6.020;2023-08-20T02:03:44;19.30;99.90
39067;DHT22;24821;51.988;6.020;2023-08-20T02:06:10;19.40;99.90
39067;DHT22;24821;51.988;6.020;2023-08-20T02:08:35;19.30;99.90
39067;DHT22;24821;51.988;6.020;2023-08-20T02:11:02;19.30;99.90
39067;DHT22;24821;51.988;6.020;2023-08-20T02:13:28;19.30;99.90
39067;DHT22;24821;51.988;6.020;2023-08-20T02:16:04;19.20;99.90
39067;DHT22;24821;51.988;6.020;2023-08-20T02:18:30;19.20;99.90
39067;DHT22;24821;51.988;6.020;2023-08-20T02:20:56;19.10;99.90
39067;DHT22;24821;51.988;6.020;2023-08-20T02:23:22;19.10;99.90
39067;DHT22;24821;51.988;6.020;2023-08-20T02:25:48;19.10;99.90
39067;DHT22;24821;51.988;6.020;2023-08-20T02:28:14;19.10;99.90
39067;DHT22;24821;51.988;6.020;2023-08-20T02:30:43;19.00;99.90
39067;DHT22;24821;51.988;6.020;2023-08-20T02:33:09;19.10;99.90
39067;DHT22;24821;51.988;6.020;2023-08-20T02:35:39;19.00;99.90
39067;DHT22;24821;51.988;6.020;2023-08-20T02:38:05;19.00;99.90
39067;DHT22;24821;51.988;6.020;2023-08-20T02:40:31;19.00;99.90
39067;DHT22;24821;51.988;6.020;2023-08-20T02:42:56;19.00;99.90
39067;DHT22;24821;51.988;6.020;2023-08-20T02:45:22;18.90;99.90
39067;DHT22;24821;51.988;6.020;2023-08-20T02:47:48;18.90;99.90
39067;DHT22;24821;51.988;6.020;2023-08-20T02:50:14;18.90;99.90
39067;DHT22;24821;51.988;6.020;2023-08-20T02:52:42;18.90;99.90
39067;DHT22;24821;51.988;6.020;2023-08-20T02:55:07;18.90;99.90
39067;DHT22;24821;51.988;6.020;2023-08-20T02:57:33;18.90;99.90
39067;DHT22;24821;51.988;6.020;2023-08-20T02:59:59;18.80;99.90
39067;DHT22;24821;51.988;6.020;2023-08-20T03:02:24;18.80;99.90
39067;DHT22;24821;51.988;6.020;2023-08-20T03:04:50;18.80;99.90
39067;DHT22;24821;51.988;6.020;2023-08-20T03:07:15;18.80;99.90
39067;DHT22;24821;51.988;6.020;2023-08-20T03:09:41;18.80;99.90
39067;DHT22;24821;51.988;6.020;2023-08-20T03:12:07;18.70;99.90
39067;DHT22;24821;51.988;6.020;2023-08-20T03:14:32;18.70;99.90
39067;DHT22;24821;51.988;6.020;2023-08-20T03:16:58;18.70;99.90
39067;DHT22;24821;51.988;6.020;2023-08-20T03:19:23;18.70;99.90
39067;DHT22;24821;51.988;6.020;2023-08-20T03:21:49;18.60;99.90
39067;DHT22;24821;51.988;6.020;2023-08-20T03:24:15;18.60;99.90
39067;DHT22;24821;51.988;6.020;2023-08-20T03:26:40;18.60;99.90
39067;DHT22;24821;51.988;6.020;2023-08-20T03:29:06;18.50;99.90
39067;DHT22;24821;51.988;6.020;2023-08-20T03:31:32;18.50;99.90
39067;DHT22;24821;51.988;6.020;2023-08-20T03:33:57;18.50;99.90
39067;DHT22;24821;51.988;6.020;2023-08-20T03:36:23;18.50;99.90
39067;DHT22;24821;51.988;6.020;2023-08-20T03:38:48;18.50;99.90
39067;DHT22;24821;51.988;6.020;2023-08-20T03:41:14;18.50;99.90
39067;DHT22;24821;51.988;6.020;2023-08-20T03:43:40;18.40;99.90
39067;DHT22;24821;51.988;6.020;2023-08-20T03:46:05;18.30;99.90
39067;DHT22;24821;51.988;6.020;2023-08-20T03:48:31;18.30;99.90
39067;DHT22;24821;51.988;6.020;2023-08-20T03:50:56;18.30;99.90
39067;DHT22;24821;51.988;6.020;2023-08-20T03:53:22;18.20;99.90
39067;DHT22;24821;51.988;6.020;2023-08-20T03:55:50;18.20;99.90
39067;DHT22;24821;51.988;6.020;2023-08-20T03:58:16;18.20;99.90
39067;DHT22;24821;51.988;6.020;2023-08-20T04:00:43;18.20;99.90
39067;DHT22;24821;51.988;6.020;2023-08-20T04:03:09;18.20;99.90
39067;DHT22;24821;51.988;6.020;2023-08-20T04:05:38;18.20;99.90
39067;DHT22;24821;51.988;6.020;2023-08-20T04:08:04;18.20;99.90
39067;DHT22;24821;51.988;6.020;2023-08-20T04:10:30;18.10;99.90
39067;DHT22;24821;51.988;6.020;2023-08-20T04:12:56;18.10;99.90
39067;DHT22;24821;51.988;6.020;2023-08-20T04:15:22;18.10;99.90
39067;DHT22;24821;51.988;6.020;2023-08-20T04:17:47;18.10;99.90
39067;DHT22;24821;51.988;6.020;2023-08-20T04:20:14;18.10;99.90
39067;DHT22;24821;51.988;6.020;2023-08-20T04:22:40;18.10;99.90
39067;DHT22;24821;51.988;6.020;2023-08-20T04:25:06;18.10;99.90
39067;DHT22;24821;51.988;6.020;2023-08-20T04:27:32;18.10;99.90
39067;DHT22;24821;51.988;6.020;2023-08-20T04:29:57;18.00;99.90
39067;DHT22;24821;51.988;6.020;2023-08-20T04:32:23;18.00;99.90
39067;DHT22;24821;51.988;6.020;2023-08-20T04:34:48;18.00;99.90
39067;DHT22;24821;51.988;6.020;2023-08-20T04:37:15;18.00;99.90
39067;DHT22;24821;51.988;6.020;2023-08-20T04:39:40;18.00;99.90
39067;DHT22;24821;51.988;6.020;2023-08-20T04:42:06;18.00;99.90
39067;DHT22;24821;51.988;6.020;2023-08-20T04:44:32;18.00;99.90
39067;DHT22;24821;51.988;6.020;2023-08-20T04:46:58;18.00;99.90
39067;DHT22;24821;51.988;6.020;2023-08-20T04:49:23;18.00;99.90
39067;DHT22;24821;51.988;6.020;2023-08-20T04:51:53;18.00;99.90
39067;DHT22;24821;51.988;6.020;2023-08-20T04:54:19;18.00;99.90
39067;DHT22;24821;51.988;6.020;2023-08-20T04:56:45;18.00;99.90
39067;DHT22;24821;51.988;6.020;2023-08-20T04:59:10;18.00;99.90
39067;DHT22;24821;51.988;6.020;2023-08-20T05:01:37;18.00;99.90
39067;DHT22;24821;51.988;6.020;2023-08-20T05:04:03;18.00;99.90
39067;DHT22;24821;51.988;6.020;2023-08-20T05:06:29;18.00;99.90
39067;DHT22;24821;51.988;6.020;2023-08-20T05:08:54;18.00;99.90
39067;DHT22;24821;51.988;6.020;2023-08-20T05:11:20;18.00;99.90
39067;DHT22;24821;51.988;6.020;2023-08-20T05:13:49;18.00;99.90
39067;DHT22;24821;51.988;6.020;2023-08-20T05:16:14;18.00;99.90
39067;DHT22;24821;51.988;6.020;2023-08-20T05:18:40;18.00;99.90
39067;DHT22;24821;51.988;6.020;2023-08-20T05:21:06;18.00;99.90
39067;DHT22;24821;51.988;6.020;2023-08-20T05:23:31;18.00;99.90
39067;DHT22;24821;51.988;6.020;2023-08-20T05:25:57;18.00;99.90
39067;DHT22;24821;51.988;6.020;2023-08-20T05:28:22;18.00;99.90
39067;DHT22;24821;51.988;6.020;2023-08-20T05:30:57;18.10;99.90
39067;DHT22;24821;51.988;6.020;2023-08-20T05:33:23;18.10;99.90
39067;DHT22;24821;51.988;6.020;2023-08-20T05:35:49;18.10;99.90
39067;DHT22;24821;51.988;6.020;2023-08-20T05:38:15;18.20;99.90
39067;DHT22;24821;51.988;6.020;2023-08-20T05:40:41;18.20;99.90
39067;DHT22;24821;51.988;6.020;2023-08-20T05:43:06;18.20;99.90
39067;DHT22;24821;51.988;6.020;2023-08-20T05:45:32;18.30;99.90
39067;DHT22;24821;51.988;6.020;2023-08-20T05:47:58;18.30;99.90
39067;DHT22;24821;51.988;6.020;2023-08-20T05:50:23;18.30;99.90
39067;DHT22;24821;51.988;6.020;2023-08-20T05:52:49;18.40;99.90
39067;DHT22;24821;51.988;6.020;2023-08-20T05:55:15;18.40;99.90
39067;DHT22;24821;51.988;6.020;2023-08-20T05:57:41;18.50;99.90
39067;DHT22;24821;51.988;6.020;2023-08-20T06:00:09;18.50;99.90
39067;DHT22;24821;51.988;6.020;2023-08-20T06:02:36;18.50;99.90
39067;DHT22;24821;51.988;6.020;2023-08-20T06:05:03;18.60;99.90
39067;DHT22;24821;51.988;6.020;2023-08-20T06:07:30;18.70;99.90
39067;DHT22;24821;51.988;6.020;2023-08-20T06:09:56;18.70;99.90
39067;DHT22;24821;51.988;6.020;2023-08-20T06:12:22;18.80;99.90
39067;DHT22;24821;51.988;6.020;2023-08-20T06:14:48;18.90;99.90
39067;DHT22;24821;51.988;6.020;2023-08-20T06:17:14;18.90;99.90
39067;DHT22;24821;51.988;6.020;2023-08-20T06:19:39;19.00;99.90
39067;DHT22;24821;51.988;6.020;2023-08-20T06:22:05;19.10;99.90
39067;DHT22;24821;51.988;6.020;2023-08-20T06:24:30;19.10;99.90
39067;DHT22;24821;51.988;6.020;2023-08-20T06:26:56;19.20;99.90
39067;DHT22;24821;51.988;6.020;2023-08-20T06:29:21;19.30;99.90
39067;DHT22;24821;51.988;6.020;2023-08-20T06:31:48;19.30;99.90
39067;DHT22;24821;51.988;6.020;2023-08-20T06:34:14;19.40;99.90
39067;DHT22;24821;51.988;6.020;2023-08-20T06:36:39;19.40;99.90
39067;DHT22;24821;51.988;6.020;2023-08-20T06:39:05;19.50;99.90
39067;DHT22;24821;51.988;6.020;2023-08-20T06:41:31;19.60;99.90
39067;DHT22;24821;51.988;6.020;2023-08-20T06:43:56;19.60;99.90
39067;DHT22;24821;51.988;6.020;2023-08-20T06:46:22;19.70;99.90
39067;DHT22;24821;51.988;6.020;2023-08-20T06:48:48;19.70;99.90
39067;DHT22;24821;51.988;6.020;2023-08-20T06:51:20;19.80;99.90
39067;DHT22;24821;51.988;6.020;2023-08-20T06:53:46;19.90;99.90
39067;DHT22;24821;51.988;6.020;2023-08-20T06:56:12;19.90;99.90
39067;DHT22;24821;51.988;6.020;2023-08-20T06:58:40;20.00;99.90
39067;DHT22;24821;51.988;6.020;2023-08-20T07:01:06;20.00;99.90
39067;DHT22;24821;51.988;6.020;2023-08-20T07:03:35;20.00;99.90
39067;DHT22;24821;51.988;6.020;2023-08-20T07:06:01;20.10;99.90
39067;DHT22;24821;51.988;6.020;2023-08-20T07:08:27;20.20;99.90
39067;DHT22;24821;51.988;6.020;2023-08-20T07:10:52;20.20;99.90
39067;DHT22;24821;51.988;6.020;2023-08-20T07:13:18;20.30;99.90
39067;DHT22;24821;51.988;6.020;2023-08-20T07:15:43;20.30;99.90
39067;DHT22;24821;51.988;6.020;2023-08-20T07:18:09;20.40;99.90
39067;DHT22;24821;51.988;6.020;2023-08-20T07:20:38;20.40;99.90
39067;DHT22;24821;51.988;6.020;2023-08-20T07:23:04;20.50;99.90
39067;DHT22;24821;51.988;6.020;2023-08-20T07:25:30;20.60;99.90
39067;DHT22;24821;51.988;6.020;2023-08-20T07:27:56;20.60;99.90
39067;DHT22;24821;51.988;6.020;2023-08-20T07:30:25;20.60;99.90
39067;DHT22;24821;51.988;6.020;2023-08-20T07:32:51;20.70;99.90
39067;DHT22;24821;51.988;6.020;2023-08-20T07:35:16;20.80;99.90
39067;DHT22;24821;51.988;6.020;2023-08-20T07:37:42;20.80;99.90
39067;DHT22;24821;51.988;6.020;2023-08-20T07:40:08;20.90;99.90
39067;DHT22;24821;51.988;6.020;2023-08-20T07:42:34;21.00;99.90
39067;DHT22;24821;51.988;6.020;2023-08-20T07:45:00;21.00;99.90
39067;DHT22;24821;51.988;6.020;2023-08-20T07:47:26;21.10;99.90
39067;DHT22;24821;51.988;6.020;2023-08-20T07:49:54;21.10;99.90
39067;DHT22;24821;51.988;6.020;2023-08-20T07:52:20;21.10;99.90
39067;DHT22;24821;51.988;6.020;2023-08-20T07:54:45;21.20;99.90
39067;DHT22;24821;51.988;6.020;2023-08-20T07:57:11;21.30;99.90
39067;DHT22;24821;51.988;6.020;2023-08-20T07:59:37;21.40;99.90
39067;DHT22;24821;51.988;6.020;2023-08-20T08:02:03;21.50;99.90
39067;DHT22;24821;51.988;6.020;2023-08-20T08:04:29;21.60;99.90
39067;DHT22;24821;51.988;6.020;2023-08-20T08:06:55;21.70;99.90
39067;DHT22;24821;51.988;6.020;2023-08-20T08:09:31;21.80;99.90
39067;DHT22;24821;51.988;6.020;2023-08-20T08:11:57;22.00;99.90
39067;DHT22;24821;51.988;6.020;2023-08-20T08:14:23;22.10;99.90
39067;DHT22;24821;51.988;6.020;2023-08-20T08:16:49;22.40;99.90
39067;DHT22;24821;51.988;6.020;2023-08-20T08:19:16;22.70;99.90
39067;DHT22;24821;51.988;6.020;2023-08-20T08:21:43;22.90;99.90
39067;DHT22;24821;51.988;6.020;2023-08-20T08:24:09;23.00;99.90
39067;DHT22;24821;51.988;6.020;2023-08-20T08:26:35;23.10;99.90
39067;DHT22;24821;51.988;6.020;2023-08-20T08:29:05;23.20;99.90
39067;DHT22;24821;51.988;6.020;2023-08-20T08:31:31;23.40;99.50
39067;DHT22;24821;51.988;6.020;2023-08-20T08:33:57;23.80;98.90
39067;DHT22;24821;51.988;6.020;2023-08-20T08:36:23;24.00;98.60
39067;DHT22;24821;51.988;6.020;2023-08-20T08:38:50;24.40;97.80
39067;DHT22;24821;51.988;6.020;2023-08-20T08:41:16;24.70;97.40
39067;DHT22;24821;51.988;6.020;2023-08-20T08:43:42;25.10;97.00
39067;DHT22;24821;51.988;6.020;2023-08-20T08:46:13;25.30;96.00
39067;DHT22;24821;51.988;6.020;2023-08-20T08:48:44;25.60;95.70
39067;DHT22;24821;51.988;6.020;2023-08-20T08:51:12;25.90;95.10
39067;DHT22;24821;51.988;6.020;2023-08-20T08:53:37;26.10;95.10
39067;DHT22;24821;51.988;6.020;2023-08-20T08:56:03;26.40;95.60
39067;DHT22;24821;51.988;6.020;2023-08-20T08:58:31;26.80;94.70
39067;DHT22;24821;51.988;6.020;2023-08-20T09:00:57;27.00;94.10
39067;DHT22;24821;51.988;6.020;2023-08-20T09:03:23;27.20;93.90
39067;DHT22;24821;51.988;6.020;2023-08-20T09:05:54;27.50;93.30
39067;DHT22;24821;51.988;6.020;2023-08-20T09:08:27;27.60;92.80
39067;DHT22;24821;51.988;6.020;2023-08-20T09:10:55;27.80;92.10
39067;DHT22;24821;51.988;6.020;2023-08-20T09:16:03;28.00;91.40
39067;DHT22;24821;51.988;6.020;2023-08-20T09:18:30;28.00;91.40
39067;DHT22;24821;51.988;6.020;2023-08-20T09:20:57;28.10;91.50
39067;DHT22;24821;51.988;6.020;2023-08-20T09:23:24;28.20;91.50
39067;DHT22;24821;51.988;6.020;2023-08-20T09:25:53;28.30;91.00
39067;DHT22;24821;51.988;6.020;2023-08-20T09:28:18;28.50;91.20
39067;DHT22;24821;51.988;6.020;2023-08-20T09:31:04;28.60;90.30
39067;DHT22;24821;51.988;6.020;2023-08-20T09:33:30;28.60;88.70
39067;DHT22;24821;51.988;6.020;2023-08-20T09:35:55;28.60;87.50
39067;DHT22;24821;51.988;6.020;2023-08-20T09:38:22;28.40;88.70
39067;DHT22;24821;51.988;6.020;2023-08-20T09:40:50;28.50;89.00
39067;DHT22;24821;51.988;6.020;2023-08-20T09:43:19;28.60;88.10
39067;DHT22;24821;51.988;6.020;2023-08-20T09:45:47;28.60;87.00
39067;DHT22;24821;51.988;6.020;2023-08-20T09:48:18;28.50;86.40
39067;DHT22;24821;51.988;6.020;2023-08-20T09:50:47;28.40;87.30
39067;DHT22;24821;51.988;6.020;2023-08-20T09:53:32;28.30;85.50
39067;DHT22;24821;51.988;6.020;2023-08-20T09:56:15;28.00;87.00
39067;DHT22;24821;51.988;6.020;2023-08-20T09:58:43;27.80;87.00
39067;DHT22;24821;51.988;6.020;2023-08-20T10:01:09;27.60;88.10
39067;DHT22;24821;51.988;6.020;2023-08-20T10:03:35;27.60;88.10
39067;DHT22;24821;51.988;6.020;2023-08-20T10:06:02;27.50;87.30
39067;DHT22;24821;51.988;6.020;2023-08-20T10:08:28;27.30;89.40
39067;DHT22;24821;51.988;6.020;2023-08-20T10:10:54;27.30;90.10
39067;DHT22;24821;51.988;6.020;2023-08-20T10:13:19;27.20;89.10
39067;DHT22;24821;51.988;6.020;2023-08-20T10:15:46;27.20;89.00
39067;DHT22;24821;51.988;6.020;2023-08-20T10:18:11;27.20;89.40
39067;DHT22;24821;51.988;6.020;2023-08-20T10:20:39;27.20;88.40
39067;DHT22;24821;51.988;6.020;2023-08-20T10:23:06;27.10;88.60
39067;DHT22;24821;51.988;6.020;2023-08-20T10:25:40;27.10;90.00
39067;DHT22;24821;51.988;6.020;2023-08-20T10:28:20;27.10;88.80
39067;DHT22;24821;51.988;6.020;2023-08-20T10:31:12;27.00;90.00
39067;DHT22;24821;51.988;6.020;2023-08-20T10:36:20;27.00;90.20
39067;DHT22;24821;51.988;6.020;2023-08-20T10:38:54;27.00;90.30
39067;DHT22;24821;51.988;6.020;2023-08-20T10:41:28;27.00;90.10
39067;DHT22;24821;51.988;6.020;2023-08-20T10:43:57;27.10;89.20
39067;DHT22;24821;51.988;6.020;2023-08-20T10:46:24;27.10;88.50
39067;DHT22;24821;51.988;6.020;2023-08-20T10:48:56;27.10;89.40
39067;DHT22;24821;51.988;6.020;2023-08-20T10:51:37;27.10;89.50
39067;DHT22;24821;51.988;6.020;2023-08-20T10:54:07;27.10;88.30
39067;DHT22;24821;51.988;6.020;2023-08-20T10:56:48;27.10;89.30
39067;DHT22;24821;51.988;6.020;2023-08-20T10:59:18;27.20;89.50
39067;DHT22;24821;51.988;6.020;2023-08-20T11:01:47;27.20;88.60
39067;DHT22;24821;51.988;6.020;2023-08-20T11:04:16;27.20;88.30
39067;DHT22;24821;51.988;6.020;2023-08-20T11:06:43;27.10;87.60
39067;DHT22;24821;51.988;6.020;2023-08-20T11:09:09;27.10;86.60
39067;DHT22;24821;51.988;6.020;2023-08-20T11:11:38;27.10;85.30
39067;DHT22;24821;51.988;6.020;2023-08-20T11:14:06;27.10;85.30
39067;DHT22;24821;51.988;6.020;2023-08-20T11:16:33;27.10;85.90
39067;DHT22;24821;51.988;6.020;2023-08-20T11:18:59;27.10;84.20
39067;DHT22;24821;51.988;6.020;2023-08-20T11:21:25;27.10;84.90
39067;DHT22;24821;51.988;6.020;2023-08-20T11:23:51;27.10;85.40
39067;DHT22;24821;51.988;6.020;2023-08-20T11:26:17;27.20;85.30
39067;DHT22;24821;51.988;6.020;2023-08-20T11:28:46;27.20;85.90
39067;DHT22;24821;51.988;6.020;2023-08-20T11:31:12;27.20;86.00
39067;DHT22;24821;51.988;6.020;2023-08-20T11:33:38;27.30;85.50
39067;DHT22;24821;51.988;6.020;2023-08-20T11:36:07;27.30;85.50
39067;DHT22;24821;51.988;6.020;2023-08-20T11:38:32;27.30;85.00
39067;DHT22;24821;51.988;6.020;2023-08-20T11:40:58;27.20;85.80
39067;DHT22;24821;51.988;6.020;2023-08-20T11:43:28;27.30;82.50
39067;DHT22;24821;51.988;6.020;2023-08-20T11:45:54;27.30;83.90
39067;DHT22;24821;51.988;6.020;2023-08-20T11:48:20;27.30;83.60
39067;DHT22;24821;51.988;6.020;2023-08-20T11:50:50;27.30;85.40
39067;DHT22;24821;51.988;6.020;2023-08-20T11:53:21;27.30;83.90
39067;DHT22;24821;51.988;6.020;2023-08-20T11:55:48;27.40;83.10
39067;DHT22;24821;51.988;6.020;2023-08-20T11:58:14;27.40;82.00
39067;DHT22;24821;51.988;6.020;2023-08-20T12:00:40;27.40;84.10
39067;DHT22;24821;51.988;6.020;2023-08-20T12:03:08;27.40;83.70
39067;DHT22;24821;51.988;6.020;2023-08-20T12:05:33;27.50;82.20
39067;DHT22;24821;51.988;6.020;2023-08-20T12:08:01;27.50;82.60
39067;DHT22;24821;51.988;6.020;2023-08-20T12:10:28;27.50;83.20
39067;DHT22;24821;51.988;6.020;2023-08-20T12:12:55;27.50;82.20
39067;DHT22;24821;51.988;6.020;2023-08-20T12:15:21;27.60;83.20
39067;DHT22;24821;51.988;6.020;2023-08-20T12:20:23;27.50;82.00
39067;DHT22;24821;51.988;6.020;2023-08-20T12:22:48;27.50;82.40
39067;DHT22;24821;51.988;6.020;2023-08-20T12:25:14;27.50;80.60
39067;DHT22;24821;51.988;6.020;2023-08-20T12:27:41;27.60;82.70
39067;DHT22;24821;51.988;6.020;2023-08-20T12:30:07;27.60;81.70
39067;DHT22;24821;51.988;6.020;2023-08-20T12:32:32;27.60;82.10
39067;DHT22;24821;51.988;6.020;2023-08-20T12:34:58;27.50;82.00
39067;DHT22;24821;51.988;6.020;2023-08-20T12:37:23;27.60;81.80
39067;DHT22;24821;51.988;6.020;2023-08-20T12:39:49;27.60;83.60
39067;DHT22;24821;51.988;6.020;2023-08-20T12:42:15;27.70;82.50
39067;DHT22;24821;51.988;6.020;2023-08-20T12:44:40;27.80;82.90
39067;DHT22;24821;51.988;6.020;2023-08-20T12:47:06;27.80;81.40
39067;DHT22;24821;51.988;6.020;2023-08-20T12:49:31;27.80;80.90
39067;DHT22;24821;51.988;6.020;2023-08-20T12:51:57;27.80;80.90
39067;DHT22;24821;51.988;6.020;2023-08-20T12:54:22;27.80;81.50
39067;DHT22;24821;51.988;6.020;2023-08-20T12:56:48;27.90;81.10
39067;DHT22;24821;51.988;6.020;2023-08-20T12:59:13;27.90;81.20
39067;DHT22;24821;51.988;6.020;2023-08-20T13:01:39;27.90;81.50
39067;DHT22;24821;51.988;6.020;2023-08-20T13:04:05;28.00;81.60
39067;DHT22;24821;51.988;6.020;2023-08-20T13:06:31;28.00;80.70
39067;DHT22;24821;51.988;6.020;2023-08-20T13:08:57;28.00;81.10
39067;DHT22;24821;51.988;6.020;2023-08-20T13:11:25;28.00;81.20
39067;DHT22;24821;51.988;6.020;2023-08-20T13:13:51;27.90;81.30
39067;DHT22;24821;51.988;6.020;2023-08-20T13:16:18;27.90;81.40
39067;DHT22;24821;51.988;6.020;2023-08-20T13:18:45;28.00;82.60
39067;DHT22;24821;51.988;6.020;2023-08-20T13:21:11;28.00;82.20
39067;DHT22;24821;51.988;6.020;2023-08-20T13:23:36;28.10;82.10
39067;DHT22;24821;51.988;6.020;2023-08-20T13:26:02;28.10;80.90
39067;DHT22;24821;51.988;6.020;2023-08-20T13:28:28;28.20;82.30
39067;DHT22;24821;51.988;6.020;2023-08-20T13:30:53;28.20;82.60
39067;DHT22;24821;51.988;6.020;2023-08-20T13:33:19;28.30;83.10
39067;DHT22;24821;51.988;6.020;2023-08-20T13:35:44;28.40;83.00
39067;DHT22;24821;51.988;6.020;2023-08-20T13:38:11;28.40;82.30
39067;DHT22;24821;51.988;6.020;2023-08-20T13:40:37;28.40;81.00
39067;DHT22;24821;51.988;6.020;2023-08-20T13:43:02;28.40;81.60
39067;DHT22;24821;51.988;6.020;2023-08-20T13:45:28;28.50;80.70
39067;DHT22;24821;51.988;6.020;2023-08-20T13:47:54;28.50;80.60
39067;DHT22;24821;51.988;6.020;2023-08-20T13:50:19;28.50;79.50
39067;DHT22;24821;51.988;6.020;2023-08-20T13:52:45;28.30;79.90
39067;DHT22;24821;51.988;6.020;2023-08-20T13:55:10;28.20;80.00
39067;DHT22;24821;51.988;6.020;2023-08-20T13:57:36;28.10;81.30
39067;DHT22;24821;51.988;6.020;2023-08-20T14:00:02;28.20;81.10
39067;DHT22;24821;51.988;6.020;2023-08-20T14:02:33;28.30;81.00
39067;DHT22;24821;51.988;6.020;2023-08-20T14:04:59;28.30;80.70
39067;DHT22;24821;51.988;6.020;2023-08-20T14:07:24;28.30;80.60
39067;DHT22;24821;51.988;6.020;2023-08-20T14:09:50;28.30;79.20
39067;DHT22;24821;51.988;6.020;2023-08-20T14:12:16;28.30;80.50
39067;DHT22;24821;51.988;6.020;2023-08-20T14:14:41;28.20;81.00
39067;DHT22;24821;51.988;6.020;2023-08-20T14:17:07;28.20;79.90
39067;DHT22;24821;51.988;6.020;2023-08-20T14:19:34;28.10;80.50
39067;DHT22;24821;51.988;6.020;2023-08-20T14:21:59;28.10;81.40
39067;DHT22;24821;51.988;6.020;2023-08-20T14:24:25;28.10;81.10
39067;DHT22;24821;51.988;6.020;2023-08-20T14:26:51;28.20;80.40
39067;DHT22;24821;51.988;6.020;2023-08-20T14:29:16;28.20;80.40
39067;DHT22;24821;51.988;6.020;2023-08-20T14:31:42;28.20;80.80
39067;DHT22;24821;51.988;6.020;2023-08-20T14:34:08;28.20;82.10
39067;DHT22;24821;51.988;6.020;2023-08-20T14:36:33;28.20;81.60
39067;DHT22;24821;51.988;6.020;2023-08-20T14:38:59;28.30;80.70
39067;DHT22;24821;51.988;6.020;2023-08-20T14:41:25;28.30;80.90
39067;DHT22;24821;51.988;6.020;2023-08-20T14:43:51;28.30;80.20
39067;DHT22;24821;51.988;6.020;2023-08-20T14:46:16;28.40;80.30
39067;DHT22;24821;51.988;6.020;2023-08-20T14:48:42;28.40;80.90
39067;DHT22;24821;51.988;6.020;2023-08-20T14:51:08;28.40;78.90
39067;DHT22;24821;51.988;6.020;2023-08-20T14:53:34;28.40;78.40
39067;DHT22;24821;51.988;6.020;2023-08-20T14:55:59;28.30;79.80
39067;DHT22;24821;51.988;6.020;2023-08-20T14:58:25;28.30;79.30
39067;DHT22;24821;51.988;6.020;2023-08-20T15:00:50;28.20;79.00
39067;DHT22;24821;51.988;6.020;2023-08-20T15:03:16;28.30;79.10
39067;DHT22;24821;51.988;6.020;2023-08-20T15:05:42;28.30;78.90
39067;DHT22;24821;51.988;6.020;2023-08-20T15:08:07;28.20;79.10
39067;DHT22;24821;51.988;6.020;2023-08-20T15:10:33;28.20;79.20
39067;DHT22;24821;51.988;6.020;2023-08-20T15:12:59;28.20;78.70
39067;DHT22;24821;51.988;6.020;2023-08-20T15:15:24;28.20;80.50
39067;DHT22;24821;51.988;6.020;2023-08-20T15:17:54;28.20;80.60
39067;DHT22;24821;51.988;6.020;2023-08-20T15:20:19;28.20;80.90
39067;DHT22;24821;51.988;6.020;2023-08-20T15:22:45;28.30;79.90
39067;DHT22;24821;51.988;6.020;2023-08-20T15:25:11;28.40;80.50
39067;DHT22;24821;51.988;6.020;2023-08-20T15:27:37;28.50;81.20
39067;DHT22;24821;51.988;6.020;2023-08-20T15:30:04;28.60;80.30
39067;DHT22;24821;51.988;6.020;2023-08-20T15:32:30;28.60;80.90
39067;DHT22;24821;51.988;6.020;2023-08-20T15:34:56;28.70;80.20
39067;DHT22;24821;51.988;6.020;2023-08-20T15:37:22;28.70;79.40
39067;DHT22;24821;51.988;6.020;2023-08-20T15:39:47;28.70;79.10
39067;DHT22;24821;51.988;6.020;2023-08-20T15:42:13;28.70;79.10